createdAt,value
2017-10-01T00:00:33.744Z,14.04
2017-10-01T00:01:33.442Z,14.07
2017-10-01T00:02:33.538Z,13.95
2017-10-01T00:03:33.426Z,14.03
2017-10-01T00:04:33.118Z,14.05
2017-10-01T00:05:33.418Z,14.07
2017-10-01T00:06:33.730Z,14.08
2017-10-01T00:07:33.102Z,14.04
2017-10-01T00:08:33.814Z,13.95
2017-10-01T00:09:33.401Z,13.98
2017-10-01T00:10:33.087Z,13.98
2017-10-01T00:11:33.707Z,14
2017-10-01T00:12:33.281Z,13.94
2017-10-01T00:13:33.386Z,13.95
2017-10-01T00:14:33.171Z,13.94
2017-10-01T00:15:33.478Z,13.95
2017-10-01T00:16:33.379Z,13.93
2017-10-01T00:17:33.678Z,13.98
2017-10-01T00:18:33.773Z,14.03
2017-10-01T00:19:33.457Z,13.97
2017-10-01T00:20:33.351Z,13.98
2017-10-01T00:21:33.034Z,13.94
2017-10-01T00:22:33.342Z,13.93
2017-10-01T00:23:33.343Z,13.95
2017-10-01T00:24:33.023Z,13.97
2017-10-01T00:25:33.325Z,13.94
2017-10-01T00:26:33.329Z,14.04
2017-10-01T00:27:33.630Z,14.05
2017-10-01T00:28:33.001Z,14.05
2017-10-01T00:29:32.995Z,14.04
2017-10-01T00:30:33.449Z,13.98
2017-10-01T00:31:33.297Z,14.01
2017-10-01T00:32:32.980Z,14
2017-10-01T00:33:32.974Z,13.94
2017-10-01T00:34:33.697Z,13.98
2017-10-01T00:35:33.273Z,14
2017-10-01T00:36:32.957Z,14.03
2017-10-01T00:37:33.270Z,13.95
2017-10-01T00:38:33.288Z,13.98
2017-10-01T00:39:33.146Z,13.98
2017-10-01T00:40:32.939Z,14
2017-10-01T00:41:32.935Z,14.05
2017-10-01T00:42:33.241Z,14.04
2017-10-01T00:43:33.238Z,14.04
2017-10-01T00:44:33.021Z,13.97
2017-10-01T00:45:32.916Z,13.94
2017-10-01T00:46:33.533Z,13.98
2017-10-01T00:47:33.320Z,13.97
2017-10-01T00:48:32.901Z,14.01
2017-10-01T00:49:33.208Z,13.95
2017-10-01T00:50:33.201Z,13.95
2017-10-01T00:51:32.888Z,13.82
2017-10-01T00:52:33.665Z,13.93
2017-10-01T00:53:33.499Z,13.87
2017-10-01T00:54:33.180Z,13.83
2017-10-01T00:55:32.968Z,13.86
2017-10-01T00:56:33.170Z,13.85
2017-10-01T00:57:33.168Z,13.82
2017-10-01T00:58:32.852Z,13.79
2017-10-01T00:59:33.158Z,13.93
2017-10-01T01:00:33.460Z,13.86
2017-10-01T01:01:33.154Z,13.87
2017-10-01T01:02:33.340Z,13.85
2017-10-01T01:03:33.236Z,13.85
2017-10-01T01:04:33.132Z,13.97
2017-10-01T01:05:33.438Z,13.82
2017-10-01T01:06:33.434Z,13.87
2017-10-01T01:07:32.906Z,13.86
2017-10-01T01:08:33.420Z,13.89
2017-10-01T01:09:33.417Z,13.83
2017-10-01T01:10:33.413Z,13.82
2017-10-01T01:11:33.200Z,13.76
2017-10-01T01:12:33.091Z,13.71
2017-10-01T01:13:33.089Z,13.79
2017-10-01T01:14:33.086Z,13.76
2017-10-01T01:15:33.386Z,13.78
2017-10-01T01:16:32.864Z,13.8
2017-10-01T01:17:32.754Z,13.7
2017-10-01T01:18:33.165Z,13.7
2017-10-01T01:19:33.056Z,13.7
2017-10-01T01:20:33.362Z,13.76
2017-10-01T01:21:33.051Z,13.76
2017-10-01T01:22:33.140Z,13.83
2017-10-01T01:23:33.348Z,13.78
2017-10-01T01:24:33.031Z,13.76
2017-10-01T01:25:33.341Z,13.76
2017-10-01T01:26:33.336Z,13.8
2017-10-01T01:27:32.706Z,13.76
2017-10-01T01:28:33.328Z,13.83
2017-10-01T01:29:33.423Z,13.75
2017-10-01T01:30:33.311Z,13.78
2017-10-01T01:31:32.687Z,13.78
2017-10-01T01:32:33.300Z,13.79
2017-10-01T01:33:33.089Z,13.82
2017-10-01T01:34:32.982Z,13.76
2017-10-01T01:35:33.079Z,13.82
2017-10-01T01:36:33.487Z,13.82
2017-10-01T01:37:32.968Z,13.8
2017-10-01T01:38:32.648Z,13.79
2017-10-01T01:39:33.058Z,13.79
2017-10-01T01:40:33.263Z,13.73
2017-10-01T01:41:32.944Z,13.76
2017-10-01T01:42:32.948Z,13.78
2017-10-01T01:43:32.943Z,13.78
2017-10-01T01:44:32.721Z,13.93
2017-10-01T01:45:32.926Z,13.89
2017-10-01T01:46:33.021Z,13.82
2017-10-01T01:47:32.606Z,13.93
2017-10-01T01:48:32.601Z,13.8
2017-10-01T01:49:33.055Z,13.86
2017-10-01T01:50:33.315Z,13.87
2017-10-01T01:51:33.001Z,13.8
2017-10-01T01:52:32.579Z,13.76
2017-10-01T01:53:32.985Z,13.76
2017-10-01T01:54:32.883Z,13.78
2017-10-01T01:55:32.874Z,13.83
2017-10-01T01:56:32.561Z,13.86
2017-10-01T01:57:32.867Z,13.8
2017-10-01T01:58:32.860Z,13.75
2017-10-01T01:59:32.856Z,13.86
2017-10-01T02:00:33.160Z,13.71
2017-10-01T02:01:33.356Z,13.82
2017-10-01T02:02:33.249Z,13.83
2017-10-01T02:03:32.833Z,13.76
2017-10-01T02:04:32.519Z,13.82
2017-10-01T02:05:32.514Z,13.79
2017-10-01T02:06:32.512Z,13.79
2017-10-01T02:07:32.917Z,13.82
2017-10-01T02:08:32.502Z,13.79
2017-10-01T02:09:32.808Z,13.82
2017-10-01T02:10:33.109Z,13.78
2017-10-01T02:11:32.894Z,13.76
2017-10-01T02:12:33.096Z,13.71
2017-10-01T02:13:33.296Z,13.75
2017-10-01T02:14:32.778Z,13.67
2017-10-01T02:15:32.463Z,13.67
2017-10-01T02:16:32.561Z,13.68
2017-10-01T02:17:32.555Z,13.6
2017-10-01T02:18:33.174Z,13.71
2017-10-01T02:19:32.444Z,13.61
2017-10-01T02:20:32.753Z,13.61
2017-10-01T02:21:33.055Z,13.58
2017-10-01T02:22:32.529Z,13.57
2017-10-01T02:23:32.626Z,13.57
2017-10-01T02:24:32.418Z,13.67
2017-10-01T02:25:32.413Z,13.68
2017-10-01T02:26:32.724Z,13.65
2017-10-01T02:27:32.404Z,13.6
2017-10-01T02:28:32.709Z,13.61
2017-10-01T02:29:33.011Z,13.62
2017-10-01T02:30:32.704Z,13.65
2017-10-01T02:31:32.485Z,13.61
2017-10-01T02:32:33.004Z,13.62
2017-10-01T02:33:32.835Z,13.64
2017-10-01T02:34:32.371Z,13.7
2017-10-01T02:35:32.679Z,13.67
2017-10-01T02:36:32.356Z,13.65
2017-10-01T02:37:32.971Z,13.62
2017-10-01T02:38:32.448Z,13.65
2017-10-01T02:39:32.343Z,13.61
2017-10-01T02:40:33.068Z,13.62
2017-10-01T02:41:32.954Z,13.55
2017-10-01T02:42:32.638Z,13.64
2017-10-01T02:43:32.320Z,13.62
2017-10-01T02:44:32.942Z,13.6
2017-10-01T02:45:32.312Z,13.55
2017-10-01T02:46:32.618Z,13.57
2017-10-01T02:47:32.301Z,13.58
2017-10-01T02:48:32.394Z,13.52
2017-10-01T02:49:32.714Z,13.52
2017-10-01T02:50:32.288Z,13.58
2017-10-01T02:51:32.281Z,13.49
2017-10-01T02:52:32.899Z,13.52
2017-10-01T02:53:32.582Z,13.55
2017-10-01T02:54:32.982Z,13.58
2017-10-01T02:55:32.575Z,13.52
2017-10-01T02:56:32.256Z,13.6
2017-10-01T02:57:32.872Z,13.58
2017-10-01T02:58:32.244Z,13.58
2017-10-01T02:59:32.550Z,13.55
2017-10-01T03:00:32.858Z,13.55
2017-10-01T03:01:32.542Z,13.55
2017-10-01T03:02:32.842Z,13.49
2017-10-01T03:03:32.632Z,13.49
2017-10-01T03:04:32.535Z,13.49
2017-10-01T03:05:32.827Z,13.5
2017-10-01T03:06:32.306Z,13.5
2017-10-01T03:07:32.201Z,13.54
2017-10-01T03:08:32.603Z,13.57
2017-10-01T03:09:32.188Z,13.71
2017-10-01T03:10:32.807Z,13.62
2017-10-01T03:11:32.589Z,13.67
2017-10-01T03:12:32.797Z,13.55
2017-10-01T03:13:32.678Z,13.67
2017-10-01T03:14:32.163Z,13.65
2017-10-01T03:15:32.472Z,13.7
2017-10-01T03:16:32.461Z,13.71
2017-10-01T03:17:32.458Z,13.73
2017-10-01T03:18:32.553Z,13.73
2017-10-01T03:19:32.446Z,13.75
2017-10-01T03:20:32.753Z,13.78
2017-10-01T03:21:32.434Z,13.67
2017-10-01T03:22:32.430Z,13.75
2017-10-01T03:23:32.430Z,13.68
2017-10-01T03:24:32.423Z,13.71
2017-10-01T03:25:32.414Z,13.71
2017-10-01T03:26:32.825Z,13.76
2017-10-01T03:27:32.404Z,13.73
2017-10-01T03:28:32.916Z,13.65
2017-10-01T03:29:32.088Z,13.67
2017-10-01T03:30:32.396Z,13.64
2017-10-01T03:31:32.697Z,13.68
2017-10-01T03:32:32.380Z,13.67
2017-10-01T03:33:32.064Z,13.62
2017-10-01T03:34:32.466Z,13.67
2017-10-01T03:35:32.362Z,13.68
2017-10-01T03:36:32.358Z,13.67
2017-10-01T03:37:32.143Z,13.73
2017-10-01T03:38:32.357Z,13.65
2017-10-01T03:39:32.344Z,13.62
2017-10-01T03:40:32.130Z,13.6
2017-10-01T03:41:32.437Z,13.6
2017-10-01T03:42:32.018Z,13.65
2017-10-01T03:43:32.425Z,13.68
2017-10-01T03:44:32.632Z,13.65
2017-10-01T03:45:32.724Z,13.75
2017-10-01T03:46:31.994Z,13.7
2017-10-01T03:47:32.301Z,13.65
2017-10-01T03:48:32.300Z,13.65
2017-10-01T03:49:32.083Z,13.67
2017-10-01T03:50:32.389Z,13.62
2017-10-01T03:51:32.593Z,13.65
2017-10-01T03:52:32.068Z,13.6
2017-10-01T03:53:32.292Z,13.67
2017-10-01T03:54:32.676Z,13.68
2017-10-01T03:55:32.260Z,13.6
2017-10-01T03:56:32.048Z,13.61
2017-10-01T03:57:32.043Z,13.67
2017-10-01T03:58:32.350Z,13.65
2017-10-01T03:59:32.552Z,13.6
2017-10-01T04:00:32.243Z,13.65
2017-10-01T04:01:32.329Z,13.73
2017-10-01T04:02:32.228Z,13.75
2017-10-01T04:03:32.322Z,13.71
2017-10-01T04:04:32.217Z,13.71
2017-10-01T04:05:32.211Z,13.68
2017-10-01T04:06:31.896Z,13.67
2017-10-01T04:07:32.202Z,13.58
2017-10-01T04:08:32.195Z,13.68
2017-10-01T04:09:32.287Z,13.61
2017-10-01T04:10:32.192Z,13.65
2017-10-01T04:11:32.180Z,13.6
2017-10-01T04:12:32.273Z,13.68
2017-10-01T04:13:32.171Z,13.71
2017-10-01T04:14:32.103Z,13.62
2017-10-01T04:15:32.159Z,13.71
2017-10-01T04:16:32.255Z,13.67
2017-10-01T04:17:32.149Z,13.73
2017-10-01T04:18:31.833Z,13.65
2017-10-01T04:19:31.924Z,13.7
2017-10-01T04:20:31.820Z,13.65
2017-10-01T04:21:32.443Z,13.65
2017-10-01T04:22:31.811Z,13.68
2017-10-01T04:23:31.807Z,13.71
2017-10-01T04:24:32.219Z,13.6
2017-10-01T04:25:32.519Z,13.64
2017-10-01T04:26:31.793Z,13.61
2017-10-01T04:27:32.407Z,13.71
2017-10-01T04:28:31.880Z,13.83
2017-10-01T04:29:32.081Z,13.79
2017-10-01T04:30:32.182Z,13.73
2017-10-01T04:31:31.767Z,13.76
2017-10-01T04:32:31.759Z,13.73
2017-10-01T04:33:32.065Z,13.8
2017-10-01T04:34:32.372Z,13.75
2017-10-01T04:35:32.365Z,13.67
2017-10-01T04:36:31.738Z,13.64
2017-10-01T04:37:32.351Z,13.62
2017-10-01T04:38:32.453Z,13.65
2017-10-01T04:39:31.722Z,13.6
2017-10-01T04:40:32.346Z,13.55
2017-10-01T04:41:32.027Z,13.52
2017-10-01T04:42:32.022Z,13.49
2017-10-01T04:43:31.703Z,13.47
2017-10-01T04:44:32.422Z,13.5
2017-10-01T04:45:32.000Z,13.47
2017-10-01T04:46:32.413Z,13.52
2017-10-01T04:47:32.303Z,13.47
2017-10-01T04:48:31.995Z,13.5
2017-10-01T04:49:31.673Z,13.42
2017-10-01T04:50:31.666Z,13.36
2017-10-01T04:51:32.380Z,13.49
2017-10-01T04:52:31.973Z,13.31
2017-10-01T04:53:31.961Z,13.3
2017-10-01T04:54:31.956Z,13.31
2017-10-01T04:55:32.049Z,13.42
2017-10-01T04:56:32.047Z,13.36
2017-10-01T04:57:31.941Z,13.46
2017-10-01T04:58:31.937Z,13.47
2017-10-01T04:59:31.619Z,13.37
2017-10-01T05:00:31.716Z,13.47
2017-10-01T05:01:32.121Z,13.47
2017-10-01T05:02:32.227Z,13.49
2017-10-01T05:03:31.911Z,13.52
2017-10-01T05:04:31.907Z,13.46
2017-10-01T05:05:31.689Z,13.43
2017-10-01T05:06:31.880Z,13.42
2017-10-01T05:07:31.890Z,13.46
2017-10-01T05:08:31.888Z,13.49
2017-10-01T05:09:31.567Z,13.43
2017-10-01T05:10:31.872Z,13.57
2017-10-01T05:11:31.967Z,13.62
2017-10-01T05:12:31.862Z,13.67
2017-10-01T05:13:31.859Z,13.64
2017-10-01T05:14:31.854Z,13.6
2017-10-01T05:15:32.159Z,13.57
2017-10-01T05:16:32.151Z,13.55
2017-10-01T05:17:32.252Z,13.58
2017-10-01T05:18:31.522Z,13.57
2017-10-01T05:19:31.826Z,13.62
2017-10-01T05:20:32.132Z,13.64
2017-10-01T05:21:31.916Z,13.64
2017-10-01T05:22:31.813Z,13.71
2017-10-01T05:23:32.115Z,13.78
2017-10-01T05:24:31.489Z,13.75
2017-10-01T05:25:31.898Z,13.79
2017-10-01T05:26:31.787Z,13.78
2017-10-01T05:27:31.787Z,13.76
2017-10-01T05:28:31.467Z,13.8
2017-10-01T05:29:31.777Z,13.78
2017-10-01T05:30:32.083Z,13.76
2017-10-01T05:31:31.861Z,13.79
2017-10-01T05:32:31.858Z,13.85
2017-10-01T05:33:31.444Z,13.79
2017-10-01T05:34:31.750Z,13.82
2017-10-01T05:35:31.433Z,13.85
2017-10-01T05:36:31.738Z,13.82
2017-10-01T05:37:31.835Z,13.78
2017-10-01T05:38:31.728Z,13.71
2017-10-01T05:39:31.822Z,13.85
2017-10-01T05:40:31.725Z,13.82
2017-10-01T05:41:32.027Z,13.76
2017-10-01T05:42:31.398Z,13.76
2017-10-01T05:43:32.113Z,13.82
2017-10-01T05:44:31.696Z,13.8
2017-10-01T05:45:31.380Z,13.8
2017-10-01T05:46:31.688Z,13.78
2017-10-01T05:47:31.779Z,13.8
2017-10-01T05:48:31.777Z,13.76
2017-10-01T05:49:31.357Z,13.71
2017-10-01T05:50:31.353Z,13.78
2017-10-01T05:51:32.075Z,13.71
2017-10-01T05:52:31.343Z,13.76
2017-10-01T05:53:31.962Z,13.8
2017-10-01T05:54:31.642Z,13.82
2017-10-01T05:55:31.952Z,13.78
2017-10-01T05:56:31.733Z,13.8
2017-10-01T05:57:31.318Z,13.8
2017-10-01T05:58:31.313Z,13.78
2017-10-01T05:59:31.407Z,13.78
2017-10-01T06:00:31.293Z,13.78
2017-10-01T06:01:31.913Z,13.78
2017-10-01T06:02:31.387Z,13.82
2017-10-01T06:03:31.282Z,13.78
2017-10-01T06:04:31.477Z,13.85
2017-10-01T06:05:31.268Z,13.89
2017-10-01T06:06:31.262Z,13.91
2017-10-01T06:07:31.260Z,13.95
2017-10-01T06:08:31.565Z,13.85
2017-10-01T06:09:32.121Z,13.89
2017-10-01T06:10:31.244Z,13.87
2017-10-01T06:11:31.548Z,13.91
2017-10-01T06:12:31.244Z,13.94
2017-10-01T06:13:31.538Z,13.94
2017-10-01T06:14:31.223Z,13.93
2017-10-01T06:15:31.528Z,13.87
2017-10-01T06:16:32.031Z,13.87
2017-10-01T06:17:31.205Z,13.87
2017-10-01T06:18:31.512Z,13.89
2017-10-01T06:19:31.820Z,13.91
2017-10-01T06:20:31.191Z,13.94
2017-10-01T06:21:31.500Z,14
2017-10-01T06:22:31.177Z,13.98
2017-10-01T06:23:31.509Z,13.95
2017-10-01T06:24:31.172Z,13.95
2017-10-01T06:25:31.786Z,13.97
2017-10-01T06:26:31.882Z,14.01
2017-10-01T06:27:31.465Z,14
2017-10-01T06:28:31.792Z,14.05
2017-10-01T06:29:31.244Z,14.03
2017-10-01T06:30:31.449Z,14.08
2017-10-01T06:31:31.544Z,14.07
2017-10-01T06:32:31.849Z,14.16
2017-10-01T06:33:31.738Z,14.13
2017-10-01T06:34:31.437Z,14.18
2017-10-01T06:35:31.422Z,14.18
2017-10-01T06:36:31.519Z,14.12
2017-10-01T06:37:31.413Z,14.22
2017-10-01T06:38:31.403Z,14.15
2017-10-01T06:39:31.401Z,14.11
2017-10-01T06:40:31.396Z,14.15
2017-10-01T06:41:31.080Z,14.12
2017-10-01T06:42:31.078Z,14.16
2017-10-01T06:43:31.792Z,14.22
2017-10-01T06:44:31.383Z,14.15
2017-10-01T06:45:31.369Z,14.11
2017-10-01T06:46:31.675Z,14.19
2017-10-01T06:47:31.055Z,14.19
2017-10-01T06:48:31.453Z,14.2
2017-10-01T06:49:31.353Z,14.13
2017-10-01T06:50:31.752Z,14.12
2017-10-01T06:51:31.594Z,14.23
2017-10-01T06:52:31.337Z,14.18
2017-10-01T06:53:31.327Z,14.18
2017-10-01T06:54:31.330Z,14.13
2017-10-01T06:55:31.107Z,14.19
2017-10-01T06:56:31.870Z,14.2
2017-10-01T06:57:31.000Z,14.15
2017-10-01T06:58:31.404Z,14.18
2017-10-01T06:59:31.298Z,14.16
2017-10-01T07:00:31.292Z,14.12
2017-10-01T07:01:31.390Z,14.15
2017-10-01T07:02:30.971Z,14.08
2017-10-01T07:03:31.375Z,14.19
2017-10-01T07:04:31.272Z,14.22
2017-10-01T07:05:31.265Z,14.26
2017-10-01T07:06:31.357Z,14.23
2017-10-01T07:07:31.048Z,14.36
2017-10-01T07:08:31.257Z,14.34
2017-10-01T07:09:30.938Z,14.34
2017-10-01T07:10:31.342Z,14.34
2017-10-01T07:11:31.027Z,14.37
2017-10-01T07:12:31.539Z,14.37
2017-10-01T07:13:31.537Z,14.41
2017-10-01T07:14:31.220Z,14.34
2017-10-01T07:15:31.628Z,14.4
2017-10-01T07:16:30.898Z,14.38
2017-10-01T07:17:31.614Z,14.44
2017-10-01T07:18:31.404Z,14.49
2017-10-01T07:19:31.199Z,14.51
2017-10-01T07:20:31.188Z,14.49
2017-10-01T07:21:31.285Z,14.44
2017-10-01T07:22:31.276Z,14.51
2017-10-01T07:23:31.274Z,14.43
2017-10-01T07:24:30.857Z,14.49
2017-10-01T07:25:31.162Z,14.43
2017-10-01T07:26:31.468Z,14.43
2017-10-01T07:27:31.154Z,14.43
2017-10-01T07:28:30.938Z,14.4
2017-10-01T07:29:31.243Z,14.41
2017-10-01T07:30:30.852Z,14.36
2017-10-01T07:31:31.132Z,14.43
2017-10-01T07:32:30.819Z,14.48
2017-10-01T07:33:31.120Z,14.44
2017-10-01T07:34:31.216Z,14.45
2017-10-01T07:35:31.110Z,14.52
2017-10-01T07:36:31.412Z,14.52
2017-10-01T07:37:30.991Z,14.49
2017-10-01T07:38:31.097Z,14.52
2017-10-01T07:39:30.779Z,14.45
2017-10-01T07:40:31.494Z,14.49
2017-10-01T07:41:31.083Z,14.44
2017-10-01T07:42:31.074Z,14.61
2017-10-01T07:43:31.169Z,14.53
2017-10-01T07:44:31.526Z,14.51
2017-10-01T07:45:30.772Z,14.59
2017-10-01T07:46:30.743Z,14.63
2017-10-01T07:47:31.357Z,14.52
2017-10-01T07:48:31.457Z,14.53
2017-10-01T07:49:31.351Z,14.52
2017-10-01T07:50:31.493Z,14.59
2017-10-01T07:51:31.036Z,14.53
2017-10-01T07:52:31.122Z,14.55
2017-10-01T07:53:30.707Z,14.62
2017-10-01T07:54:30.702Z,14.67
2017-10-01T07:55:30.848Z,14.68
2017-10-01T07:56:31.316Z,14.66
2017-10-01T07:57:30.996Z,14.67
2017-10-01T07:58:31.195Z,14.51
2017-10-01T07:59:30.991Z,14.62
2017-10-01T08:00:30.676Z,14.66
2017-10-01T08:01:30.668Z,14.66
2017-10-01T08:02:30.972Z,14.68
2017-10-01T08:03:31.276Z,14.67
2017-10-01T08:04:31.065Z,14.73
2017-10-01T08:05:30.970Z,14.71
2017-10-01T08:06:30.950Z,14.63
2017-10-01T08:07:31.355Z,14.7
2017-10-01T08:08:30.945Z,14.67
2017-10-01T08:09:30.941Z,14.78
2017-10-01T08:10:30.623Z,14.71
2017-10-01T08:11:30.929Z,14.73
2017-10-01T08:12:30.924Z,14.78
2017-10-01T08:13:30.923Z,14.85
2017-10-01T08:14:30.910Z,14.78
2017-10-01T08:15:30.598Z,14.82
2017-10-01T08:16:30.899Z,14.96
2017-10-01T08:17:30.894Z,14.94
2017-10-01T08:18:30.588Z,14.97
2017-10-01T08:19:30.982Z,15
2017-10-01T08:20:30.570Z,15.02
2017-10-01T08:21:31.388Z,15.1
2017-10-01T08:22:30.559Z,15.11
2017-10-01T08:23:30.869Z,15.04
2017-10-01T08:24:30.552Z,15.04
2017-10-01T08:25:30.543Z,15.07
2017-10-01T08:26:30.641Z,15.05
2017-10-01T08:27:31.157Z,15.11
2017-10-01T08:28:31.150Z,15.12
2017-10-01T08:29:30.523Z,15.12
2017-10-01T08:30:30.930Z,15.14
2017-10-01T08:31:30.516Z,15.23
2017-10-01T08:32:30.817Z,15.32
2017-10-01T08:33:31.126Z,15.35
2017-10-01T08:34:31.122Z,15.44
2017-10-01T08:35:30.805Z,15.3
2017-10-01T08:36:30.807Z,15.39
2017-10-01T08:37:30.795Z,15.3
2017-10-01T08:38:30.891Z,15.36
2017-10-01T08:39:31.100Z,15.36
2017-10-01T08:40:30.803Z,15.37
2017-10-01T08:41:30.777Z,15.23
2017-10-01T08:42:30.458Z,15.23
2017-10-01T08:43:30.764Z,15.22
2017-10-01T08:44:31.172Z,15.35
2017-10-01T08:45:30.755Z,15.37
2017-10-01T08:46:30.440Z,15.32
2017-10-01T08:47:30.536Z,15.36
2017-10-01T08:48:30.744Z,15.37
2017-10-01T08:49:31.048Z,15.37
2017-10-01T08:50:31.040Z,15.37
2017-10-01T08:51:30.416Z,15.25
2017-10-01T08:52:30.821Z,15.19
2017-10-01T08:53:30.865Z,15.29
2017-10-01T08:54:30.708Z,15.32
2017-10-01T08:55:30.705Z,15.43
2017-10-01T08:56:31.115Z,15.41
2017-10-01T08:57:30.797Z,15.48
2017-10-01T08:58:30.380Z,15.51
2017-10-01T08:59:30.684Z,15.63
2017-10-01T09:00:30.678Z,15.65
2017-10-01T09:01:30.879Z,15.6
2017-10-01T09:02:30.361Z,15.63
2017-10-01T09:03:30.669Z,15.63
2017-10-01T09:04:30.658Z,15.57
2017-10-01T09:05:30.346Z,15.65
2017-10-01T09:06:30.851Z,15.76
2017-10-01T09:07:30.337Z,15.7
2017-10-01T09:08:30.747Z,15.73
2017-10-01T09:09:30.635Z,15.69
2017-10-01T09:10:30.627Z,15.62
2017-10-01T09:11:30.725Z,15.62
2017-10-01T09:12:30.930Z,15.62
2017-10-01T09:13:30.721Z,15.66
2017-10-01T09:14:30.614Z,15.75
2017-10-01T09:15:30.297Z,15.65
2017-10-01T09:16:30.602Z,15.69
2017-10-01T09:17:30.905Z,15.66
2017-10-01T09:18:30.595Z,15.73
2017-10-01T09:19:30.285Z,15.76
2017-10-01T09:20:30.684Z,15.73
2017-10-01T09:21:30.574Z,15.73
2017-10-01T09:22:30.571Z,15.72
2017-10-01T09:23:30.565Z,15.78
2017-10-01T09:24:30.249Z,15.76
2017-10-01T09:25:30.247Z,15.76
2017-10-01T09:26:30.652Z,15.85
2017-10-01T09:27:30.855Z,15.81
2017-10-01T09:28:30.232Z,15.75
2017-10-01T09:29:30.226Z,15.76
2017-10-01T09:30:30.743Z,15.69
2017-10-01T09:31:30.219Z,15.73
2017-10-01T09:32:30.827Z,15.67
2017-10-01T09:33:30.559Z,15.75
2017-10-01T09:34:30.302Z,15.69
2017-10-01T09:35:30.504Z,15.62
2017-10-01T09:36:30.501Z,15.7
2017-10-01T09:37:30.194Z,15.66
2017-10-01T09:38:30.494Z,15.63
2017-10-01T09:39:30.492Z,15.63
2017-10-01T09:40:30.171Z,15.63
2017-10-01T09:41:30.481Z,15.67
2017-10-01T09:42:30.171Z,15.6
2017-10-01T09:43:30.469Z,15.72
2017-10-01T09:44:30.562Z,15.75
2017-10-01T09:45:30.146Z,15.59
2017-10-01T09:46:30.143Z,15.72
2017-10-01T09:47:30.136Z,15.63
2017-10-01T09:48:30.444Z,15.62
2017-10-01T09:49:30.277Z,15.57
2017-10-01T09:50:30.126Z,15.57
2017-10-01T09:51:30.118Z,15.54
2017-10-01T09:52:30.114Z,15.51
2017-10-01T09:53:30.418Z,15.62
2017-10-01T09:54:30.416Z,15.52
2017-10-01T09:55:30.715Z,15.47
2017-10-01T09:56:30.092Z,15.51
2017-10-01T09:57:30.189Z,15.51
2017-10-01T09:58:30.083Z,15.59
2017-10-01T09:59:30.179Z,15.63
2017-10-01T10:00:30.380Z,15.63
2017-10-01T10:01:30.069Z,15.65
2017-10-01T10:02:30.685Z,15.6
2017-10-01T10:03:30.368Z,15.72
2017-10-01T10:04:30.058Z,15.72
2017-10-01T10:05:30.767Z,15.78
2017-10-01T10:06:30.140Z,15.84
2017-10-01T10:07:30.344Z,15.81
2017-10-01T10:08:30.650Z,15.87
2017-10-01T10:09:30.337Z,15.88
2017-10-01T10:10:30.335Z,15.87
2017-10-01T10:11:30.018Z,15.9
2017-10-01T10:12:30.322Z,15.85
2017-10-01T10:13:30.319Z,15.85
2017-10-01T10:14:30.004Z,15.96
2017-10-01T10:15:30.410Z,16
2017-10-01T10:16:30.304Z,15.98
2017-10-01T10:17:30.400Z,16.05
2017-10-01T10:18:30.295Z,16.1
2017-10-01T10:19:30.288Z,16.09
2017-10-01T10:20:30.287Z,16.09
2017-10-01T10:21:29.970Z,16.06
2017-10-01T10:22:30.686Z,16.21
2017-10-01T10:23:30.272Z,16.29
2017-10-01T10:24:29.957Z,16.36
2017-10-01T10:25:30.367Z,16.44
2017-10-01T10:26:30.259Z,16.46
2017-10-01T10:27:29.943Z,16.57
2017-10-01T10:28:30.038Z,16.54
2017-10-01T10:29:30.030Z,16.61
2017-10-01T10:30:30.546Z,16.65
2017-10-01T10:31:30.231Z,16.64
2017-10-01T10:32:30.635Z,16.69
2017-10-01T10:33:30.533Z,16.79
2017-10-01T10:34:30.523Z,16.77
2017-10-01T10:35:30.237Z,16.72
2017-10-01T10:36:30.306Z,16.87
2017-10-01T10:37:29.892Z,16.87
2017-10-01T10:38:30.196Z,16.92
2017-10-01T10:39:30.603Z,16.95
2017-10-01T10:40:30.190Z,16.97
2017-10-01T10:41:29.874Z,16.97
2017-10-01T10:42:30.486Z,16.99
2017-10-01T10:43:29.961Z,17.01
2017-10-01T10:44:30.270Z,17.09
2017-10-01T10:45:30.262Z,16.97
2017-10-01T10:46:30.156Z,17.1
2017-10-01T10:47:29.845Z,17.02
2017-10-01T10:48:30.176Z,17.12
2017-10-01T10:49:30.453Z,17.13
2017-10-01T10:50:30.151Z,17.13
2017-10-01T10:51:30.450Z,17.1
2017-10-01T10:52:30.234Z,17.14
2017-10-01T10:53:30.128Z,17.2
2017-10-01T10:54:29.811Z,17.24
2017-10-01T10:55:29.806Z,17.27
2017-10-01T10:56:29.800Z,17.23
2017-10-01T10:57:30.110Z,17.24
2017-10-01T10:58:30.199Z,17.31
2017-10-01T10:59:30.411Z,17.31
2017-10-01T11:00:29.783Z,17.34
2017-10-01T11:01:30.084Z,17.3
2017-10-01T11:02:29.775Z,17.38
2017-10-01T11:03:30.388Z,17.34
2017-10-01T11:04:30.077Z,17.42
2017-10-01T11:05:30.072Z,17.44
2017-10-01T11:06:29.754Z,17.47
2017-10-01T11:07:30.059Z,17.5
2017-10-01T11:08:30.364Z,17.57
2017-10-01T11:09:30.154Z,17.63
2017-10-01T11:10:30.044Z,17.68
2017-10-01T11:11:30.354Z,17.75
2017-10-01T11:12:30.040Z,17.76
2017-10-01T11:13:30.440Z,17.78
2017-10-01T11:14:29.717Z,17.86
2017-10-01T11:15:30.122Z,17.84
2017-10-01T11:16:30.329Z,17.95
2017-10-01T11:17:30.014Z,17.88
2017-10-01T11:18:30.009Z,17.79
2017-10-01T11:19:29.695Z,17.84
2017-10-01T11:20:30.001Z,17.82
2017-10-01T11:21:30.504Z,17.78
2017-10-01T11:22:30.301Z,17.82
2017-10-01T11:23:29.983Z,17.9
2017-10-01T11:24:29.978Z,17.94
2017-10-01T11:25:30.285Z,17.94
2017-10-01T11:26:29.762Z,17.93
2017-10-01T11:27:29.965Z,17.86
2017-10-01T11:28:29.966Z,17.94
2017-10-01T11:29:29.957Z,17.86
2017-10-01T11:30:29.640Z,17.8
2017-10-01T11:31:29.639Z,17.86
2017-10-01T11:32:29.950Z,17.84
2017-10-01T11:33:30.038Z,17.79
2017-10-01T11:34:30.038Z,17.79
2017-10-01T11:35:30.031Z,17.82
2017-10-01T11:36:29.929Z,17.82
2017-10-01T11:37:29.921Z,17.84
2017-10-01T11:38:29.914Z,17.76
2017-10-01T11:39:29.910Z,17.86
2017-10-01T11:40:30.242Z,17.82
2017-10-01T11:41:29.905Z,17.93
2017-10-01T11:42:30.226Z,17.93
2017-10-01T11:43:29.889Z,17.9
2017-10-01T11:44:29.889Z,17.86
2017-10-01T11:45:29.575Z,17.95
2017-10-01T11:46:30.192Z,18.09
2017-10-01T11:47:29.665Z,18.12
2017-10-01T11:48:29.661Z,18.11
2017-10-01T11:49:29.559Z,18.08
2017-10-01T11:50:29.550Z,18.18
2017-10-01T11:51:30.268Z,18.23
2017-10-01T11:52:29.981Z,18.18
2017-10-01T11:53:30.256Z,18.23
2017-10-01T11:54:29.537Z,18.21
2017-10-01T11:55:29.839Z,18.21
2017-10-01T11:56:29.931Z,18.16
2017-10-01T11:57:30.235Z,18.24
2017-10-01T11:58:30.129Z,18.3
2017-10-01T11:59:29.817Z,18.26
2017-10-01T12:00:29.505Z,18.28
2017-10-01T12:01:29.909Z,18.28
2017-10-01T12:02:29.805Z,18.31
2017-10-01T12:03:30.215Z,18.33
2017-10-01T12:04:30.306Z,18.3
2017-10-01T12:05:29.480Z,18.36
2017-10-01T12:06:30.092Z,18.39
2017-10-01T12:07:30.096Z,18.46
2017-10-01T12:08:30.189Z,18.52
2017-10-01T12:09:30.090Z,18.49
2017-10-01T12:10:29.769Z,18.51
2017-10-01T12:11:30.073Z,18.48
2017-10-01T12:12:29.549Z,18.66
2017-10-01T12:13:29.756Z,18.63
2017-10-01T12:14:29.440Z,18.64
2017-10-01T12:15:29.746Z,18.7
2017-10-01T12:16:29.741Z,18.67
2017-10-01T12:17:29.837Z,18.73
2017-10-01T12:18:29.833Z,18.67
2017-10-01T12:19:29.421Z,18.67
2017-10-01T12:20:29.724Z,18.64
2017-10-01T12:21:29.727Z,18.66
2017-10-01T12:22:29.816Z,18.68
2017-10-01T12:23:30.124Z,18.58
2017-10-01T12:24:29.702Z,18.61
2017-10-01T12:25:29.705Z,18.73
2017-10-01T12:26:29.696Z,18.7
2017-10-01T12:27:29.692Z,18.64
2017-10-01T12:28:29.687Z,18.61
2017-10-01T12:29:29.374Z,18.67
2017-10-01T12:30:29.368Z,18.7
2017-10-01T12:31:29.672Z,18.7
2017-10-01T12:32:29.981Z,18.71
2017-10-01T12:33:29.973Z,18.61
2017-10-01T12:34:29.969Z,18.61
2017-10-01T12:35:29.964Z,18.66
2017-10-01T12:36:29.649Z,18.6
2017-10-01T12:37:29.338Z,18.53
2017-10-01T12:38:30.050Z,18.43
2017-10-01T12:39:29.737Z,18.36
2017-10-01T12:40:29.422Z,18.33
2017-10-01T12:41:29.940Z,18.36
2017-10-01T12:42:29.931Z,18.28
2017-10-01T12:43:29.311Z,18.33
2017-10-01T12:44:29.622Z,18.24
2017-10-01T12:45:29.609Z,18.15
2017-10-01T12:46:29.923Z,18.16
2017-10-01T12:47:29.610Z,18.21
2017-10-01T12:48:29.907Z,18.11
2017-10-01T12:49:29.596Z,18.26
2017-10-01T12:50:29.588Z,18.16
2017-10-01T12:51:29.581Z,18.13
2017-10-01T12:52:29.993Z,18.23
2017-10-01T12:53:29.681Z,18.16
2017-10-01T12:54:29.979Z,18.12
2017-10-01T12:55:29.570Z,18.08